createdAt,value
2018-04-19T00:01:54.069Z,60.63
2018-04-19T00:04:21.739Z,62.62
2018-04-19T00:06:49.466Z,64.23
2018-04-19T00:09:17.067Z,65.31
2018-04-19T00:11:44.801Z,62.03
2018-04-19T00:14:12.580Z,58.22
2018-04-19T00:16:40.252Z,57.91
2018-04-19T00:19:07.936Z,57.31
2018-04-19T00:21:35.563Z,58.06
2018-04-19T00:24:03.213Z,59.37
2018-04-19T00:26:30.831Z,59.99
2018-04-19T00:28:58.592Z,61.09
2018-04-19T00:31:26.232Z,62.93
2018-04-19T00:33:53.807Z,61.67
2018-04-19T00:36:21.610Z,58.25
2018-04-19T00:38:49.192Z,58.08
2018-04-19T00:41:16.789Z,58.91
2018-04-19T00:43:45.227Z,59.79
2018-04-19T00:46:13.549Z,61.44
2018-04-19T00:48:41.142Z,61.41
2018-04-19T00:51:08.842Z,60.57
2018-04-19T00:53:37.103Z,59.91
2018-04-19T00:56:04.772Z,59.67
2018-04-19T00:58:32.480Z,58.35
2018-04-19T01:01:00.126Z,58.32
2018-04-19T01:03:27.711Z,58.37
2018-04-19T01:05:56.249Z,57.55
2018-04-19T01:08:24.423Z,57.67
2018-04-19T01:10:52.070Z,58.49
2018-04-19T01:13:19.786Z,58.36
2018-04-19T01:15:47.366Z,58.74
2018-04-19T01:18:14.947Z,58.48
2018-04-19T01:20:42.630Z,59.52
2018-04-19T01:23:10.285Z,60.15
2018-04-19T01:25:37.957Z,60.62
2018-04-19T01:28:05.658Z,61.54
2018-04-19T01:30:33.249Z,61.48
2018-04-19T01:33:00.833Z,61.89
2018-04-19T01:35:40.385Z,62.36
2018-04-19T01:38:08.129Z,62.74
2018-04-19T01:40:35.760Z,63.22
2018-04-19T01:43:03.501Z,63.59
2018-04-19T01:45:31.092Z,63.93
2018-04-19T01:47:58.763Z,64.87
2018-04-19T01:50:26.388Z,65.29
2018-04-19T01:52:54.041Z,65.86
2018-04-19T01:55:21.645Z,66.30
2018-04-19T01:57:49.282Z,67.17
2018-04-19T02:00:16.872Z,67.19
2018-04-19T02:02:44.475Z,67.73
2018-04-19T02:05:12.118Z,67.93
2018-04-19T02:07:39.782Z,68.61
2018-04-19T02:10:07.400Z,68.74
2018-04-19T02:12:35.140Z,69.33
2018-04-19T02:15:02.788Z,69.23
2018-04-19T02:17:30.376Z,69.57
2018-04-19T02:19:58.979Z,69.38
2018-04-19T02:22:26.636Z,69.49
2018-04-19T02:24:54.215Z,69.65
2018-04-19T02:27:21.968Z,69.62
2018-04-19T02:29:49.629Z,69.74
2018-04-19T02:32:17.218Z,70.05
2018-04-19T02:34:44.922Z,69.20
2018-04-19T02:37:12.509Z,69.61
2018-04-19T02:39:40.252Z,69.62
2018-04-19T02:42:07.905Z,70.10
2018-04-19T02:44:35.545Z,70.24
2018-04-19T02:47:03.208Z,70.39
2018-04-19T02:49:30.857Z,70.17
2018-04-19T02:51:58.485Z,70.30
2018-04-19T02:54:26.137Z,70.33
2018-04-19T02:56:53.903Z,70.63
2018-04-19T02:59:21.544Z,70.75
2018-04-19T03:01:49.140Z,70.97
2018-04-19T03:04:16.882Z,70.90
2018-04-19T03:06:44.543Z,70.97
2018-04-19T03:09:12.129Z,71.25
2018-04-19T03:11:39.854Z,71.40
2018-04-19T03:14:07.454Z,71.53
2018-04-19T03:16:35.116Z,72.01
2018-04-19T03:19:02.839Z,72.09
2018-04-19T03:21:30.490Z,71.97
2018-04-19T03:23:58.133Z,72.25
2018-04-19T03:26:25.773Z,72.08
2018-04-19T03:28:53.415Z,72.38
2018-04-19T03:31:20.997Z,71.99
2018-04-19T03:33:48.743Z,72.27
2018-04-19T03:36:16.339Z,72.09
2018-04-19T03:38:43.924Z,71.85
2018-04-19T03:41:11.739Z,71.64
2018-04-19T03:43:39.405Z,71.60
2018-04-19T03:46:07.015Z,71.39
2018-04-19T03:48:34.768Z,70.94
2018-04-19T03:51:02.370Z,70.74
2018-04-19T03:53:30.037Z,66.41
2018-04-19T03:55:57.705Z,66.93
2018-04-19T03:58:25.287Z,67.17
2018-04-19T04:00:52.880Z,68.48
2018-04-19T04:03:20.605Z,69.45
2018-04-19T04:05:48.243Z,69.28
2018-04-19T04:08:15.845Z,70.67
2018-04-19T04:10:43.625Z,71.11
2018-04-19T04:13:11.243Z,71.23
2018-04-19T04:15:38.823Z,70.97
2018-04-19T04:18:18.332Z,70.49
2018-04-19T04:20:57.737Z,70.35
2018-04-19T04:23:55.051Z,69.76
2018-04-19T04:26:22.650Z,69.81
2018-04-19T04:28:50.253Z,69.39
2018-04-19T04:31:17.991Z,68.18
2018-04-19T04:33:45.646Z,69.35
2018-04-19T04:36:13.235Z,69.40
2018-04-19T04:38:40.989Z,69.57
2018-04-19T04:41:08.644Z,69.72
2018-04-19T04:43:37.024Z,70.10
2018-04-19T04:46:04.716Z,69.90
2018-04-19T04:48:32.380Z,69.50
2018-04-19T04:51:00.006Z,69.55
2018-04-19T04:53:27.723Z,69.34
2018-04-19T04:55:55.345Z,70.45
2018-04-19T04:58:22.987Z,70.52
2018-04-19T05:00:50.672Z,69.72
2018-04-19T05:03:18.255Z,69.65
2018-04-19T05:05:45.903Z,69.30
2018-04-19T05:08:13.613Z,69.03
2018-04-19T05:10:41.208Z,68.89
2018-04-19T05:13:08.824Z,69.26
2018-04-19T05:15:36.623Z,69.12
2018-04-19T05:18:04.215Z,69.21
2018-04-19T05:20:31.801Z,68.28
2018-04-19T05:22:59.533Z,67.46
2018-04-19T05:25:27.203Z,66.07
2018-04-19T05:27:55.414Z,67.32
2018-04-19T05:30:23.205Z,67.55
2018-04-19T05:32:50.801Z,67.30
2018-04-19T05:35:18.387Z,66.96
2018-04-19T05:37:46.036Z,66.07
2018-04-19T05:40:14.451Z,66.02
2018-04-19T05:42:42.112Z,66.73
2018-04-19T05:45:09.921Z,65.99
2018-04-19T05:47:37.578Z,66.26
2018-04-19T05:50:05.249Z,66.21
2018-04-19T05:52:32.956Z,66.11
2018-04-19T05:55:00.647Z,66.21
2018-04-19T05:57:28.287Z,66.09
2018-04-19T05:59:55.932Z,66.39
2018-04-19T06:02:23.512Z,66.24
2018-04-19T06:04:51.108Z,65.01
2018-04-19T06:07:18.784Z,66.08
2018-04-19T06:09:46.441Z,65.31
2018-04-19T06:12:14.080Z,63.81
2018-04-19T06:14:41.731Z,63.42
2018-04-19T06:17:09.473Z,63.82
2018-04-19T06:19:37.161Z,63.49
2018-04-19T06:22:04.921Z,62.56
2018-04-19T06:24:32.564Z,62.41
2018-04-19T06:27:00.147Z,62.20
2018-04-19T06:29:27.890Z,61.15
2018-04-19T06:31:55.572Z,59.60
2018-04-19T06:34:23.218Z,58.57
2018-04-19T06:36:50.868Z,59.40
2018-04-19T06:39:18.525Z,59.24
2018-04-19T06:41:46.145Z,59.37
2018-04-19T06:44:13.892Z,63.66
2018-04-19T06:46:41.671Z,64.18
2018-04-19T06:49:09.889Z,65.00
2018-04-19T06:51:37.529Z,65.02
2018-04-19T06:54:05.124Z,66.30
2018-04-19T06:56:32.711Z,65.26
2018-04-19T06:59:00.505Z,65.48
2018-04-19T07:01:28.159Z,65.79
2018-04-19T07:03:56.396Z,66.11
2018-04-19T07:06:24.092Z,64.95
2018-04-19T07:08:51.762Z,64.99
2018-04-19T07:11:19.347Z,65.80
2018-04-19T07:13:47.054Z,63.63
2018-04-19T07:16:14.712Z,62.71
2018-04-19T07:18:42.359Z,62.81
2018-04-19T07:21:10.126Z,63.50
2018-04-19T07:23:37.771Z,64.11
2018-04-19T07:26:05.448Z,62.20
2018-04-19T07:28:33.113Z,62.32
2018-04-19T07:31:00.732Z,61.45
2018-04-19T07:33:28.419Z,59.68
2018-04-19T07:35:56.144Z,59.03
2018-04-19T07:38:23.732Z,59.64
2018-04-19T07:40:51.322Z,59.57
2018-04-19T07:43:19.016Z,59.96
2018-04-19T07:45:46.616Z,61.13
2018-04-19T07:48:14.299Z,61.07
2018-04-19T07:50:41.952Z,60.47
2018-04-19T07:53:09.600Z,62.48
2018-04-19T07:55:37.262Z,60.07
2018-04-19T07:58:04.945Z,61.01
2018-04-19T08:00:32.541Z,61.70
2018-04-19T08:03:00.135Z,61.71
2018-04-19T08:05:27.916Z,61.88
2018-04-19T08:07:55.617Z,62.59
2018-04-19T08:10:23.216Z,61.58
2018-04-19T08:12:50.856Z,62.28
2018-04-19T08:15:18.506Z,61.88
2018-04-19T08:17:46.085Z,61.44
2018-04-19T08:20:13.747Z,62.01
2018-04-19T08:22:41.400Z,62.14
2018-04-19T08:25:09.069Z,61.25
2018-04-19T08:27:36.811Z,60.29
2018-04-19T08:30:04.425Z,59.49
2018-04-19T08:32:32.009Z,59.50
2018-04-19T08:34:59.736Z,59.08
2018-04-19T08:37:27.319Z,58.07
2018-04-19T08:39:54.906Z,58.87
2018-04-19T08:42:22.680Z,58.65
2018-04-19T08:44:50.883Z,60.92
2018-04-19T08:47:19.235Z,59.79
2018-04-19T08:49:47.044Z,61.26
2018-04-19T08:52:14.635Z,58.31
2018-04-19T08:54:42.218Z,58.25
2018-04-19T08:57:09.855Z,58.11
2018-04-19T08:59:37.436Z,57.43
2018-04-19T09:02:05.059Z,58.01
2018-04-19T09:04:32.747Z,56.16
2018-04-19T09:07:00.371Z,56.19
2018-04-19T09:09:27.971Z,52.97
2018-04-19T09:11:56.655Z,53.51
2018-04-19T09:14:24.310Z,52.51
2018-04-19T09:16:51.905Z,53.94
2018-04-19T09:19:19.632Z,53.66
2018-04-19T09:21:47.327Z,54.34
2018-04-19T09:24:14.994Z,53.61
2018-04-19T09:26:43.296Z,52.70
2018-04-19T09:29:10.916Z,53.82
2018-04-19T09:31:38.528Z,52.86
2018-04-19T09:34:06.244Z,54.81
2018-04-19T09:36:33.833Z,54.94
2018-04-19T09:39:01.435Z,55.08
2018-04-19T09:41:29.132Z,56.02
2018-04-19T09:43:56.737Z,56.16
2018-04-19T09:46:24.390Z,55.33
2018-04-19T09:48:52.027Z,57.94
2018-04-19T09:51:24.239Z,54.34
2018-04-19T09:53:52.260Z,54.48
2018-04-19T09:56:19.809Z,55.74
2018-04-19T09:58:59.315Z,55.20
2018-04-19T10:01:26.932Z,54.63
2018-04-19T10:03:54.560Z,54.16
2018-04-19T10:06:22.209Z,53.61
2018-04-19T10:08:49.796Z,56.19
2018-04-19T10:11:17.428Z,55.32
2018-04-19T10:13:45.081Z,56.00
2018-04-19T10:16:13.338Z,52.63
2018-04-19T10:18:40.938Z,55.96
2018-04-19T10:21:08.663Z,51.33
2018-04-19T10:23:36.262Z,51.28
2018-04-19T10:26:03.852Z,49.74
2018-04-19T10:28:31.584Z,49.65
2018-04-19T10:30:59.232Z,49.55
2018-04-19T10:33:26.828Z,49.26
2018-04-19T10:35:54.546Z,46.78
2018-04-19T10:38:22.151Z,45.75
2018-04-19T10:40:49.807Z,48.36
2018-04-19T10:43:17.649Z,46.30
2018-04-19T10:45:45.305Z,45.99
2018-04-19T10:48:12.969Z,46.24
2018-04-19T10:50:40.661Z,47.53
2018-04-19T10:53:08.797Z,49.16
2018-04-19T10:55:36.436Z,48.11
2018-04-19T10:58:04.140Z,46.67
2018-04-19T11:00:31.721Z,48.88
2018-04-19T11:02:59.306Z,48.37
2018-04-19T11:05:26.948Z,47.52
2018-04-19T11:07:54.605Z,51.48
2018-04-19T11:10:22.242Z,51.08
2018-04-19T11:12:50.013Z,49.26
2018-04-19T11:15:17.606Z,49.01
2018-04-19T11:17:45.953Z,49.50
2018-04-19T11:20:13.612Z,50.29
2018-04-19T11:22:41.256Z,48.07
2018-04-19T11:25:08.851Z,47.71
2018-04-19T11:27:36.489Z,47.51
2018-04-19T11:30:04.168Z,49.34
2018-04-19T11:32:31.756Z,48.06
2018-04-19T11:34:59.394Z,48.54
2018-04-19T11:37:26.995Z,46.73
2018-04-19T11:39:54.637Z,48.59
2018-04-19T11:42:22.356Z,48.46
2018-04-19T11:44:50.013Z,49.02
2018-04-19T11:47:17.746Z,49.72
2018-04-19T11:49:45.456Z,49.45
2018-04-19T11:52:13.049Z,46.44
2018-04-19T11:54:40.871Z,49.54
2018-04-19T11:57:08.535Z,46.73
2018-04-19T11:59:36.157Z,48.57
2018-04-19T12:02:03.872Z,47.45
2018-04-19T12:04:31.526Z,47.24
2018-04-19T12:06:59.265Z,43.81
2018-04-19T12:09:26.917Z,44.42
2018-04-19T12:11:54.597Z,44.64
2018-04-19T12:14:22.222Z,45.54
2018-04-19T12:16:49.801Z,41.82
2018-04-19T12:19:17.540Z,45.88
2018-04-19T12:21:45.127Z,42.91
2018-04-19T12:24:12.747Z,45.33
2018-04-19T12:26:40.439Z,43.94
2018-04-19T12:29:08.032Z,42.89
2018-04-19T12:31:35.673Z,42.00
2018-04-19T12:34:03.481Z,44.62
2018-04-19T12:36:31.088Z,44.90
2018-04-19T12:38:58.670Z,43.14
2018-04-19T12:41:26.389Z,43.07
2018-04-19T12:43:53.984Z,45.58
2018-04-19T12:46:21.639Z,44.84
2018-04-19T12:48:49.279Z,43.93
2018-04-19T12:51:16.898Z,42.94
2018-04-19T12:53:44.488Z,42.56
2018-04-19T12:56:12.244Z,41.73
2018-04-19T12:58:39.833Z,41.70
2018-04-19T13:01:07.461Z,44.16
2018-04-19T13:03:35.166Z,43.36
2018-04-19T13:06:02.776Z,46.25
2018-04-19T13:08:30.435Z,46.43
2018-04-19T13:10:58.124Z,47.22
2018-04-19T13:13:25.710Z,44.64
2018-04-19T13:15:53.344Z,47.27
2018-04-19T13:18:21.093Z,47.09
2018-04-19T13:20:48.730Z,44.47
2018-04-19T13:23:16.386Z,44.44
2018-04-19T13:25:44.052Z,45.54
2018-04-19T13:28:11.721Z,46.93
2018-04-19T13:30:39.340Z,48.22
2018-04-19T13:33:07.011Z,47.84
2018-04-19T13:35:34.595Z,46.97
2018-04-19T13:38:02.173Z,44.84
2018-04-19T13:40:29.820Z,44.90
2018-04-19T13:42:57.501Z,44.79
2018-04-19T13:45:25.089Z,44.60
2018-04-19T13:47:52.801Z,45.70
2018-04-19T13:50:20.605Z,44.77
2018-04-19T13:52:48.253Z,44.96
2018-04-19T13:55:16.044Z,44.74
2018-04-19T13:57:43.772Z,44.34
2018-04-19T14:00:11.368Z,46.81
2018-04-19T14:02:39.314Z,43.94
2018-04-19T14:05:06.981Z,46.27
2018-04-19T14:07:34.585Z,44.25
2018-04-19T14:10:02.348Z,46.39
2018-04-19T14:12:29.975Z,46.39
2018-04-19T14:14:57.559Z,44.27
2018-04-19T14:17:25.207Z,45.02
2018-04-19T14:19:52.837Z,45.52
2018-04-19T14:22:21.015Z,43.61
2018-04-19T14:24:48.660Z,44.70
2018-04-19T14:27:16.300Z,45.59
2018-04-19T14:32:21.820Z,45.81
2018-04-19T14:34:50.012Z,46.91
2018-04-19T14:37:17.604Z,47.57
2018-04-19T14:39:45.251Z,46.67
2018-04-19T14:42:12.852Z,46.64
2018-04-19T14:44:41.069Z,45.73
2018-04-19T14:47:08.769Z,47.47
2018-04-19T14:49:36.355Z,46.97
2018-04-19T14:52:03.968Z,47.81
2018-04-19T14:54:31.729Z,46.14
2018-04-19T14:56:59.304Z,45.55
2018-04-19T14:59:27.159Z,46.60
2018-04-19T15:01:54.797Z,46.36
2018-04-19T15:04:22.433Z,45.85
2018-04-19T15:06:50.015Z,45.03
2018-04-19T15:09:17.718Z,44.89
2018-04-19T15:11:45.345Z,46.72
2018-04-19T15:14:13.016Z,47.29
2018-04-19T15:16:40.802Z,47.05
2018-04-19T15:19:08.441Z,46.76
2018-04-19T15:21:36.017Z,47.15
2018-04-19T15:24:03.763Z,45.83
2018-04-19T15:26:31.408Z,44.83
2018-04-19T15:28:59.024Z,44.83
2018-04-19T15:31:26.648Z,45.12
2018-04-19T15:33:54.616Z,44.54
2018-04-19T15:36:22.940Z,44.98
2018-04-19T15:38:50.657Z,44.80
2018-04-19T15:41:18.353Z,44.38
2018-04-19T15:43:45.910Z,45.70
2018-04-19T15:46:13.784Z,44.84
2018-04-19T15:48:41.403Z,44.93
2018-04-19T15:51:08.998Z,45.91
2018-04-19T15:53:36.627Z,46.18
2018-04-19T15:56:04.297Z,46.16
2018-04-19T15:58:31.944Z,46.10
2018-04-19T16:00:59.734Z,46.53
2018-04-19T16:03:27.946Z,46.33
2018-04-19T16:05:56.311Z,46.65
2018-04-19T16:08:24.131Z,47.70
2018-04-19T16:10:51.791Z,48.31
2018-04-19T16:13:19.384Z,48.45
2018-04-19T16:15:47.092Z,47.98
2018-04-19T16:18:14.667Z,47.76
2018-04-19T16:20:42.273Z,48.00
2018-04-19T16:23:10.061Z,50.15
2018-04-19T16:25:37.662Z,50.54
2018-04-19T16:28:05.325Z,51.59
2018-04-19T16:30:32.956Z,52.17
2018-04-19T16:33:00.556Z,51.57
2018-04-19T16:35:28.173Z,52.04
2018-04-19T16:37:56.194Z,53.77
2018-04-19T16:40:23.896Z,53.97
2018-04-19T16:42:51.563Z,54.86
2018-04-19T16:45:20.218Z,54.50
2018-04-19T16:47:47.816Z,55.19
2018-04-19T16:50:15.446Z,56.04
2018-04-19T16:52:44.475Z,56.56
2018-04-19T16:55:12.149Z,55.68
2018-04-19T16:57:42.296Z,56.13
2018-04-19T17:00:11.254Z,55.82
2018-04-19T17:02:39.024Z,56.35
2018-04-19T17:05:06.652Z,55.97
2018-04-19T17:07:35.226Z,56.51
2018-04-19T17:10:02.903Z,56.44
2018-04-19T17:12:30.757Z,56.55
2018-04-19T17:14:58.419Z,57.39
2018-04-19T17:17:26.028Z,57.72
2018-04-19T17:19:53.620Z,57.93
2018-04-19T17:22:21.345Z,58.80
2018-04-19T17:24:48.931Z,58.82
2018-04-19T17:27:16.524Z,59.64
2018-04-19T17:29:44.228Z,60.13
2018-04-19T17:32:11.888Z,60.05
2018-04-19T17:34:39.523Z,60.37
2018-04-19T17:37:07.312Z,60.55
2018-04-19T17:39:34.910Z,60.73
2018-04-19T17:42:02.572Z,60.70
2018-04-19T17:44:30.292Z,60.89
2018-04-19T17:46:57.952Z,61.05
2018-04-19T17:49:26.690Z,60.70
2018-04-19T17:51:54.435Z,60.77
2018-04-19T17:54:22.152Z,59.28
2018-04-19T17:56:49.808Z,59.08
2018-04-19T17:59:18.036Z,58.57
2018-04-19T18:01:45.697Z,59.20
2018-04-19T18:04:13.417Z,58.83
2018-04-19T18:06:41.066Z,58.57
2018-04-19T18:09:08.653Z,58.59
2018-04-19T18:11:36.301Z,59.29
2018-04-19T18:14:03.950Z,59.43
2018-04-19T18:16:31.632Z,59.15
2018-04-19T18:18:59.338Z,58.81
2018-04-19T18:21:26.992Z,58.68
2018-04-19T18:23:54.595Z,58.17
2018-04-19T18:26:22.284Z,57.66
2018-04-19T18:28:49.932Z,57.29
2018-04-19T18:31:17.608Z,56.63
2018-04-19T18:33:45.255Z,56.22
2018-04-19T18:36:12.901Z,56.43
2018-04-19T18:38:40.580Z,56.27
2018-04-19T18:41:08.421Z,55.83
2018-04-19T18:43:36.219Z,56.22
2018-04-19T18:46:03.839Z,56.73
2018-04-19T18:48:31.515Z,56.80
2018-04-19T18:50:59.308Z,56.47
2018-04-19T18:53:26.891Z,56.62
2018-04-19T18:55:54.464Z,56.63
2018-04-19T18:58:22.151Z,56.85
2018-04-19T19:00:49.747Z,56.69
2018-04-19T19:03:17.398Z,56.62
2018-04-19T19:05:45.271Z,56.88
2018-04-19T19:08:12.873Z,56.53
2018-04-19T19:10:40.457Z,56.77
2018-04-19T19:13:08.312Z,56.78
2018-04-19T19:19:00.856Z,57.15
2018-04-19T19:21:28.446Z,57.46
2018-04-19T19:23:56.033Z,57.64
2018-04-19T19:26:23.841Z,57.48
2018-04-19T19:28:51.451Z,57.68
2018-04-19T19:31:19.089Z,57.74
2018-04-19T19:33:46.736Z,57.90
2018-04-19T19:36:14.330Z,58.18
2018-04-19T19:38:42.005Z,57.99
2018-04-19T19:41:09.784Z,58.25
2018-04-19T19:43:37.440Z,57.83
2018-04-19T19:46:05.088Z,56.01
2018-04-19T19:48:32.873Z,56.14
2018-04-19T19:51:00.462Z,55.88
2018-04-19T19:53:28.700Z,55.40
2018-04-19T19:55:56.339Z,55.36
2018-04-19T19:58:23.964Z,55.43
2018-04-19T20:00:51.569Z,55.10
2018-04-19T20:03:19.344Z,55.38
2018-04-19T20:05:47.166Z,56.40
2018-04-19T20:08:14.774Z,56.47
2018-04-19T20:10:42.579Z,56.95
2018-04-19T20:13:10.166Z,57.21
2018-04-19T20:15:37.832Z,56.48
2018-04-19T20:18:05.480Z,56.44
2018-04-19T20:20:33.737Z,56.47
2018-04-19T20:23:01.344Z,56.59
2018-04-19T20:25:28.970Z,56.20
2018-04-19T20:27:56.612Z,56.17
2018-04-19T20:30:24.795Z,55.83
2018-04-19T20:32:52.513Z,55.00
2018-04-19T20:35:20.093Z,55.07
2018-04-19T20:37:47.659Z,54.63
2018-04-19T20:40:15.446Z,54.31
2018-04-19T20:42:43.085Z,53.24
2018-04-19T20:45:10.663Z,52.62
2018-04-19T20:47:38.296Z,52.15
2018-04-19T20:50:05.882Z,52.71
2018-04-19T20:52:33.496Z,52.10
2018-04-19T20:55:01.155Z,51.56
2018-04-19T20:57:28.736Z,51.47
2018-04-19T20:59:56.329Z,51.50
2018-04-19T21:02:24.028Z,51.34
2018-04-19T21:04:51.623Z,51.29
2018-04-19T21:07:19.268Z,51.16
2018-04-19T21:09:46.909Z,50.58
2018-04-19T21:12:14.519Z,50.34
2018-04-19T21:14:42.103Z,49.94
2018-04-19T21:17:09.804Z,49.61
2018-04-19T21:19:37.478Z,49.26
2018-04-19T21:22:05.748Z,48.77
2018-04-19T21:24:33.487Z,48.53
2018-04-19T21:27:01.061Z,48.85
2018-04-19T21:29:28.705Z,48.90
2018-04-19T21:31:56.456Z,48.21
2018-04-19T21:34:24.048Z,48.74
2018-04-19T21:36:51.687Z,49.48
2018-04-19T21:39:19.421Z,48.92
2018-04-19T21:41:47.001Z,48.41
2018-04-19T21:44:14.564Z,48.29
2018-04-19T21:46:42.360Z,47.85
2018-04-19T21:49:09.992Z,48.39
2018-04-19T21:51:37.649Z,47.78
2018-04-19T21:54:05.376Z,48.01
2018-04-19T21:56:33.025Z,47.45
2018-04-19T21:59:00.615Z,48.18
2018-04-19T22:01:28.333Z,48.66
2018-04-19T22:03:55.912Z,48.21
2018-04-19T22:06:23.508Z,48.58
2018-04-19T22:08:51.283Z,48.60
2018-04-19T22:11:18.866Z,48.55
2018-04-19T22:13:46.435Z,48.39
2018-04-19T22:16:14.221Z,48.65
2018-04-19T22:18:42.045Z,49.19
2018-04-19T22:21:09.628Z,49.20
2018-04-19T22:23:37.266Z,49.80
2018-04-19T22:26:04.868Z,49.88
2018-04-19T22:28:32.452Z,50.13
2018-04-19T22:31:00.172Z,50.35
2018-04-19T22:33:28.484Z,50.77
2018-04-19T22:35:56.057Z,50.87
2018-04-19T22:38:23.696Z,50.59
2018-04-19T22:40:51.272Z,50.42
2018-04-19T22:43:18.858Z,50.78
2018-04-19T22:45:46.545Z,50.61
2018-04-19T22:48:14.145Z,50.52
2018-04-19T22:50:41.755Z,50.57
2018-04-19T22:53:09.480Z,50.59
2018-04-19T22:55:37.064Z,50.31
2018-04-19T22:58:04.652Z,50.56
2018-04-19T23:00:32.358Z,51.00
2018-04-19T23:02:59.932Z,50.78
2018-04-19T23:05:27.530Z,50.41
2018-04-19T23:07:55.236Z,50.48
2018-04-19T23:10:23.032Z,50.62
2018-04-19T23:12:50.608Z,51.09
2018-04-19T23:15:18.236Z,51.51
2018-04-19T23:17:45.899Z,51.34
2018-04-19T23:20:13.545Z,49.92
2018-04-19T23:22:41.332Z,49.83
2018-04-19T23:25:09.098Z,49.75
2018-04-19T23:27:36.709Z,49.28
2018-04-19T23:30:04.483Z,48.86
2018-04-19T23:32:32.128Z,49.01
2018-04-19T23:34:59.704Z,48.87
2018-04-19T23:37:27.383Z,49.13
2018-04-19T23:39:54.971Z,47.87
2018-04-19T23:42:22.572Z,47.73
2018-04-19T23:44:50.309Z,47.34
2018-04-19T23:47:17.940Z,47.42
2018-04-19T23:49:45.515Z,47.51
2018-04-19T23:52:13.223Z,47.42
2018-04-19T23:54:40.853Z,47.25
2018-04-19T23:57:08.453Z,47.01
2018-04-19T23:59:36.245Z,47.05
